Time;durP1;ratioP1;P1;durP2;ratioP2;P2;SDS_P1;SDS_P2;PMS_P1;PMS_P2;Temp;Humidity;BMP_temperature;BMP_pressure;BME280_temperature;BME280_humidity;BME280_pressure;Samples;Min_cycle;Max_cycle;Signal;HPM_P1;HPM_P2
2021/10/16 00:00:27;;;;;;;17.35;8.23;;;;;;;9.41;72.83;102166.72;5012378;28;20451;-48
2021/10/16 00:02:54;;;;;;;19.63;8.43;;;;;;;9.32;73.34;102174.34;5010146;28;20041;-49
2021/10/16 00:05:22;;;;;;;19.17;8.68;;;;;;;9.30;73.51;102174.56;4998115;28;20058;-52
2021/10/16 00:07:50;;;;;;;16.65;8.30;;;;;;;9.31;73.49;102172.69;4984827;28;20034;-52
2021/10/16 00:10:17;;;;;;;19.77;7.43;;;;;;;9.30;73.38;102171.84;5012308;28;20401;-51
2021/10/16 00:12:45;;;;;;;15.93;7.43;;;;;;;9.30;73.28;102177.28;5008369;28;20038;-50
2021/10/16 00:15:13;;;;;;;16.77;7.22;;;;;;;9.31;73.48;102170.81;5010358;28;20061;-51
2021/10/16 00:17:41;;;;;;;16.05;7.57;;;;;;;9.29;73.72;102172.91;5008302;28;20034;-51
2021/10/16 00:20:09;;;;;;;17.58;7.10;;;;;;;9.29;73.38;102174.81;5011902;28;20038;-51
2021/10/16 00:22:37;;;;;;;20.45;7.88;;;;;;;9.28;73.36;102176.69;5010016;28;20516;-51
2021/10/16 00:25:05;;;;;;;17.98;7.80;;;;;;;9.24;73.42;102177.38;5008047;28;20049;-52
2021/10/16 00:27:32;;;;;;;20.85;8.18;;;;;;;9.21;74.26;102172.38;5007888;28;20044;-51
2021/10/16 00:30:00;;;;;;;17.77;8.13;;;;;;;9.23;73.70;102173.81;5011506;28;20073;-50
2021/10/16 00:32:28;;;;;;;19.20;7.95;;;;;;;9.26;73.72;102176.09;5003937;28;20042;-48
2021/10/16 00:34:56;;;;;;;16.10;8.25;;;;;;;9.25;72.97;102171.69;5006184;28;20049;-47
2021/10/16 00:37:24;;;;;;;21.55;8.15;;;;;;;9.22;73.05;102168.63;5003697;28;20053;-49
2021/10/16 00:39:54;;;;;;;15.27;7.95;;;;;;;9.18;73.45;102158.16;5005911;28;20034;-49
2021/10/16 00:42:23;;;;;;;25.45;8.73;;;;;;;9.17;73.11;102161.13;4990186;28;20100;-48
2021/10/16 00:44:50;;;;;;;15.35;7.78;;;;;;;9.14;72.86;102161.59;5003242;28;20053;-50
2021/10/16 00:47:18;;;;;;;18.48;7.63;;;;;;;9.09;72.94;102158.69;5009166;28;20049;-49
2021/10/16 00:49:46;;;;;;;17.98;7.85;;;;;;;9.06;72.90;102153.72;5005549;28;20061;-51
2021/10/16 00:52:14;;;;;;;16.20;7.78;;;;;;;9.04;73.49;102147.66;5015651;28;20121;-50
2021/10/16 00:54:42;;;;;;;15.23;7.18;;;;;;;9.07;72.70;102150.78;5008694;28;20048;-51
2021/10/16 00:57:11;;;;;;;14.23;7.32;;;;;;;9.07;73.52;102149.94;5005061;28;20070;-51
2021/10/16 00:59:39;;;;;;;18.95;7.47;;;;;;;9.10;73.16;102149.50;5015462;28;20461;-48
2021/10/16 01:02:07;;;;;;;14.05;7.00;;;;;;;9.05;71.51;102146.63;5014348;28;20056;-49
2021/10/16 01:04:35;;;;;;;14.52;7.90;;;;;;;8.91;72.18;102154.91;5006220;28;20070;-50
2021/10/16 01:07:10;;;;;;;14.10;7.70;;;;;;;8.86;73.14;102149.31;5009589;28;20457;-51
2021/10/16 01:09:37;;;;;;;20.95;8.07;;;;;;;8.83;73.59;102159.81;5015411;28;20041;-48
2021/10/16 01:12:05;;;;;;;15.43;7.97;;;;;;;8.85;73.58;102144.94;5003847;28;20061;-52
2021/10/16 01:14:33;;;;;;;17.85;8.95;;;;;;;8.88;73.61;102152.63;5004122;28;20050;-49
2021/10/16 01:17:01;;;;;;;17.35;7.57;;;;;;;8.89;72.79;102148.03;5014236;28;20072;-49
2021/10/16 01:19:32;;;;;;;15.50;7.53;;;;;;;8.79;72.72;102153.97;4995468;28;20037;-50
2021/10/16 01:22:01;;;;;;;15.05;7.82;;;;;;;8.73;73.85;102160.28;5013830;28;20049;-50
2021/10/16 01:24:29;;;;;;;17.60;8.23;;;;;;;8.77;74.25;102156.06;4987981;28;20144;-46
2021/10/16 01:26:57;;;;;;;18.80;8.13;;;;;;;8.85;73.70;102147.66;5007972;28;20165;-50
2021/10/16 01:29:25;;;;;;;14.77;7.28;;;;;;;8.90;73.34;102144.28;5015220;28;20045;-52
2021/10/16 01:31:54;;;;;;;14.90;7.47;;;;;;;8.90;72.33;102150.53;5013127;28;20049;-52
2021/10/16 01:34:22;;;;;;;14.25;7.03;;;;;;;8.80;72.97;102139.31;5017040;28;20038;-49
2021/10/16 01:36:51;;;;;;;18.23;7.63;;;;;;;8.73;73.22;102147.56;5003504;28;20433;-51
2021/10/16 01:39:23;;;;;;;14.30;7.28;;;;;;;8.71;73.39;102143.41;5004086;28;20104;-50
2021/10/16 01:41:52;;;;;;;16.70;6.93;;;;;;;8.70;73.43;102144.44;5004576;28;20053;-50
2021/10/16 01:44:19;;;;;;;14.75;6.90;;;;;;;8.73;73.38;102144.84;5015073;28;20566;-49
2021/10/16 01:46:48;;;;;;;14.23;7.28;;;;;;;8.71;72.35;102148.84;4993398;28;20038;-46
2021/10/16 01:49:20;;;;;;;15.52;7.80;;;;;;;8.70;73.75;102144.44;4998916;28;20073;-47
2021/10/16 01:51:55;;;;;;;13.48;7.38;;;;;;;8.73;73.37;102149.41;5009369;28;20074;-49
2021/10/16 01:54:27;;;;;;;16.60;8.10;;;;;;;8.79;73.06;102136.84;5013792;28;20065;-46
2021/10/16 01:56:56;;;;;;;15.73;8.05;;;;;;;8.81;73.02;102135.56;4999242;28;20043;-46
2021/10/16 01:59:27;;;;;;;16.00;7.25;;;;;;;8.78;72.81;102146.88;4989568;28;20039;-52
2021/10/16 02:02:13;;;;;;;15.68;8.30;;;;;;;8.76;72.50;102132.69;4993589;28;20051;-51
2021/10/16 02:04:48;;;;;;;17.20;6.85;;;;;;;8.72;72.81;102142.34;4993645;28;20046;-50
2021/10/16 02:07:16;;;;;;;16.25;7.80;;;;;;;8.71;72.89;102143.41;4991895;28;20054;-48
2021/10/16 02:09:45;;;;;;;14.73;8.40;;;;;;;8.72;72.50;102136.91;4990491;28;20042;-49
2021/10/16 02:12:12;;;;;;;14.30;7.80;;;;;;;8.70;72.14;102139.00;4977593;28;20057;-50
2021/10/16 02:14:42;;;;;;;16.23;7.47;;;;;;;8.62;72.07;102144.72;4993778;28;20050;-50
2021/10/16 02:17:13;;;;;;;20.40;8.38;;;;;;;8.54;72.27;102145.84;4992374;28;20540;-49
2021/10/16 02:19:41;;;;;;;17.67;7.80;;;;;;;8.45;73.44;102131.69;4993096;28;20089;-47
2021/10/16 02:22:10;;;;;;;14.88;7.60;;;;;;;8.42;72.97;102137.56;4989745;28;20519;-50
2021/10/16 02:24:39;;;;;;;12.77;7.38;;;;;;;8.42;73.46;102132.16;4984590;28;20512;-51
2021/10/16 02:27:07;;;;;;;22.13;8.45;;;;;;;8.46;73.91;102137.94;4993897;28;20105;-49
2021/10/16 02:29:35;;;;;;;14.90;7.22;;;;;;;8.52;73.40;102137.06;4982922;28;20441;-50
2021/10/16 02:32:06;;;;;;;15.45;7.18;;;;;;;8.59;73.04;102137.03;4992570;28;20080;-49
2021/10/16 02:34:37;;;;;;;14.90;7.00;;;;;;;8.61;72.78;102134.91;4993037;28;20045;-50
2021/10/16 02:37:12;;;;;;;12.27;6.97;;;;;;;8.59;72.65;102137.03;4991485;28;20050;-50
2021/10/16 02:39:40;;;;;;;13.07;6.63;;;;;;;8.57;72.73;102134.53;4992764;28;20377;-49
2021/10/16 02:42:08;;;;;;;14.85;6.25;;;;;;;8.57;73.07;102144.56;4979942;28;20051;-50
2021/10/16 02:44:36;;;;;;;17.50;6.78;;;;;;;8.59;73.76;102142.47;5009410;28;20054;-46
2021/10/16 02:47:04;;;;;;;14.77;6.32;;;;;;;8.64;73.68;102142.63;4992554;28;20077;-51
2021/10/16 02:49:33;;;;;;;12.20;5.63;;;;;;;8.66;74.15;102138.63;4990977;28;20050;-51
2021/10/16 02:52:01;;;;;;;12.50;6.13;;;;;;;8.66;73.73;102140.50;4994301;28;20066;-49
2021/10/16 02:54:31;;;;;;;19.42;6.50;;;;;;;8.49;73.16;102154.66;4992840;28;20045;-51
2021/10/16 02:57:00;;;;;;;13.88;6.60;;;;;;;8.36;73.99;102154.72;4992543;28;20516;-49
2021/10/16 02:59:27;;;;;;;13.05;6.90;;;;;;;8.30;74.24;102155.59;4990014;28;20042;-50
2021/10/16 03:01:58;;;;;;;17.80;6.40;;;;;;;8.28;74.67;102155.00;4989313;28;20121;-50
2021/10/16 03:04:29;;;;;;;13.48;6.85;;;;;;;8.29;75.00;102145.78;4987864;28;20469;-50
2021/10/16 03:06:57;;;;;;;14.43;5.40;;;;;;;8.37;75.09;102150.97;4992393;28;20069;-53
2021/10/16 03:09:26;;;;;;;14.75;6.13;;;;;;;8.42;74.81;102156.59;5008154;28;20048;-50
2021/10/16 03:11:55;;;;;;;13.60;6.15;;;;;;;8.49;74.80;102154.66;4988625;28;20038;-53
2021/10/16 03:14:23;;;;;;;12.30;5.60;;;;;;;8.51;73.93;102155.28;4992408;28;20563;-52
2021/10/16 03:16:51;;;;;;;14.75;5.70;;;;;;;8.51;75.19;102158.00;4991339;28;20043;-51
2021/10/16 03:19:22;;;;;;;15.95;6.13;;;;;;;8.57;74.97;102152.72;4981433;28;20074;-50
2021/10/16 03:21:57;;;;;;;13.23;5.63;;;;;;;8.49;74.60;102156.50;4987302;28;20046;-48
2021/10/16 03:24:31;;;;;;;15.32;6.00;;;;;;;8.30;75.76;102153.72;5000703;28;20038;-51
2021/10/16 03:26:59;;;;;;;12.73;5.75;;;;;;;8.35;76.82;102146.81;4992993;28;20412;-49
2021/10/16 03:29:26;;;;;;;15.55;5.90;;;;;;;8.42;76.37;102145.72;4991779;28;20058;-48
2021/10/16 03:31:55;;;;;;;13.10;5.97;;;;;;;8.48;75.53;102142.09;4991507;28;20050;-50
2021/10/16 03:34:26;;;;;;;12.63;5.63;;;;;;;8.41;75.04;102146.75;4992143;28;20137;-53
2021/10/16 03:36:54;;;;;;;14.05;6.45;;;;;;;8.26;75.83;102148.94;4989302;28;20082;-50
2021/10/16 03:39:22;;;;;;;17.98;6.72;;;;;;;8.19;77.61;102150.88;4991889;28;20573;-51
2021/10/16 03:41:49;;;;;;;14.52;5.75;;;;;;;8.28;77.67;102141.41;4990039;28;20096;-52
2021/10/16 03:44:17;;;;;;;14.20;6.00;;;;;;;8.40;77.30;102145.09;4991755;28;20066;-50
2021/10/16 03:46:45;;;;;;;13.95;6.07;;;;;;;8.47;76.49;102140.47;4991016;28;20156;-52
2021/10/16 03:49:13;;;;;;;15.27;6.00;;;;;;;8.50;76.91;102142.72;4992693;28;20134;-50
2021/10/16 03:51:40;;;;;;;13.00;5.47;;;;;;;8.49;76.49;102138.34;4991288;28;20505;-51
2021/10/16 03:54:08;;;;;;;11.57;5.65;;;;;;;8.51;76.67;102141.69;4991707;28;20054;-49
2021/10/16 03:56:37;;;;;;;14.10;5.80;;;;;;;8.56;77.03;102143.72;4990843;28;20042;-49
2021/10/16 03:59:05;;;;;;;11.75;5.60;;;;;;;8.60;76.64;102138.69;4990857;28;20046;-49
2021/10/16 04:01:33;;;;;;;15.88;5.55;;;;;;;8.61;76.93;102137.63;4990954;28;20056;-50
2021/10/16 04:04:01;;;;;;;14.82;5.93;;;;;;;8.64;77.60;102137.19;4989276;28;20046;-49
2021/10/16 04:06:28;;;;;;;15.85;5.50;;;;;;;8.69;77.06;102134.63;4991004;28;20120;-50
2021/10/16 04:08:56;;;;;;;14.55;5.85;;;;;;;8.75;77.31;102128.28;4991666;28;20049;-52
2021/10/16 04:11:25;;;;;;;16.35;5.90;;;;;;;8.77;77.02;102128.91;4992716;28;20084;-53
2021/10/16 04:13:53;;;;;;;12.00;5.90;;;;;;;8.78;77.27;102127.00;4991887;28;20038;-53
2021/10/16 04:16:23;;;;;;;11.73;5.85;;;;;;;8.71;76.98;102132.53;4988949;28;20039;-54
2021/10/16 04:18:52;;;;;;;18.70;5.95;;;;;;;8.71;77.88;102132.53;4991381;28;20043;-51
2021/10/16 04:21:20;;;;;;;13.40;5.80;;;;;;;8.74;78.01;102129.34;4991641;28;20125;-51
2021/10/16 04:23:53;;;;;;;13.02;5.75;;;;;;;8.81;78.01;102140.16;4979142;28;20046;-47
2021/10/16 04:26:21;;;;;;;14.15;5.55;;;;;;;8.86;77.89;102135.72;4991324;28;20042;-49
2021/10/16 04:28:49;;;;;;;14.43;5.20;;;;;;;8.88;77.51;102139.03;4987358;28;20055;-47
2021/10/16 04:31:35;;;;;;;;;;;;;;;8.92;77.43;102142.13;4987054;28;20058;-46
2021/10/16 04:34:04;;;;;;;15.82;5.70;;;;;;;8.87;76.99;102134.66;4992162;28;19926;-46
2021/10/16 04:36:32;;;;;;;17.08;5.35;;;;;;;8.71;77.06;102141.50;4980498;28;20104;-47
2021/10/16 04:39:00;;;;;;;14.75;5.43;;;;;;;8.55;77.82;102133.91;4977204;28;20057;-46
2021/10/16 04:41:28;;;;;;;10.57;4.95;;;;;;;8.48;79.12;102144.81;4992142;28;20085;-47
2021/10/16 04:43:57;;;;;;;11.35;5.20;;;;;;;8.53;79.43;102138.72;4987011;28;20129;-50
2021/10/16 04:46:25;;;;;;;13.52;4.93;;;;;;;8.62;80.09;102131.16;4982582;28;20054;-46
2021/10/16 04:49:01;;;;;;;10.02;5.00;;;;;;;8.67;79.42;102142.16;4990984;28;20064;-50
2021/10/16 04:51:29;;;;;;;13.00;4.93;;;;;;;8.67;79.25;102145.72;4991274;28;20042;-46
2021/10/16 04:53:57;;;;;;;13.90;5.30;;;;;;;8.65;78.79;102147.00;4990836;28;20038;-46
2021/10/16 04:56:25;;;;;;;13.88;5.35;;;;;;;8.68;79.42;102151.97;4990222;28;20408;-50
2021/10/16 04:58:54;;;;;;;12.35;5.00;;;;;;;8.72;79.35;102143.16;4983317;28;20505;-47
2021/10/16 05:01:23;;;;;;;12.77;5.00;;;;;;;8.73;78.82;102143.97;4991910;28;20086;-47
2021/10/16 05:03:51;;;;;;;12.05;4.70;;;;;;;8.77;79.64;102142.50;4989031;28;20085;-49
2021/10/16 05:06:22;;;;;;;13.60;5.25;;;;;;;8.83;79.09;102136.16;4990676;28;20049;-52
2021/10/16 05:08:51;;;;;;;12.80;5.30;;;;;;;8.88;79.29;102133.59;4990568;28;20441;-48
2021/10/16 05:11:19;;;;;;;12.07;5.53;;;;;;;8.90;79.40;102139.66;4991701;28;20054;-49
2021/10/16 05:13:46;;;;;;;15.27;5.90;;;;;;;8.91;79.42;102141.31;4990694;28;20177;-50
2021/10/16 05:16:14;;;;;;;18.45;6.13;;;;;;;8.90;79.09;102147.81;4990220;28;20054;-49
2021/10/16 05:18:43;;;;;;;16.45;5.40;;;;;;;8.92;79.37;102142.97;4989322;28;20039;-52
2021/10/16 05:21:11;;;;;;;12.32;5.65;;;;;;;8.91;80.12;102132.31;4989881;28;20050;-50
2021/10/16 05:23:38;;;;;;;14.75;5.22;;;;;;;8.89;79.28;102143.41;4987152;28;20509;-50
2021/10/16 05:26:06;;;;;;;12.88;5.22;;;;;;;8.88;79.12;102132.78;4980382;28;20042;-49
2021/10/16 05:28:34;;;;;;;15.65;5.88;;;;;;;8.90;79.44;102138.84;4986735;28;20039;-49
2021/10/16 05:31:02;;;;;;;15.30;5.80;;;;;;;8.89;79.17;102135.25;4990441;28;20589;-46
2021/10/16 05:33:30;;;;;;;13.32;5.63;;;;;;;8.88;79.94;102136.31;4988441;28;20062;-50
2021/10/16 05:36:00;;;;;;;14.07;5.55;;;;;;;8.85;80.12;102149.50;4993899;28;20552;-48
2021/10/16 05:38:29;;;;;;;13.32;5.38;;;;;;;8.75;79.39;102147.31;4994256;28;20057;-49
2021/10/16 05:40:57;;;;;;;15.43;5.30;;;;;;;8.69;80.78;102143.59;4994882;28;20041;-49
2021/10/16 05:43:25;;;;;;;11.00;5.05;;;;;;;8.70;81.05;102147.97;4988880;28;20465;-47
2021/10/16 05:45:58;;;;;;;18.77;6.10;;;;;;;8.73;80.62;102149.41;4984785;28;20037;-49
2021/10/16 05:48:28;;;;;;;13.75;5.40;;;;;;;8.76;80.17;102151.72;4990007;28;20070;-51
2021/10/16 05:50:57;;;;;;;14.57;5.00;;;;;;;8.78;80.28;102157.75;5009616;28;20142;-49
2021/10/16 05:53:25;;;;;;;12.45;4.80;;;;;;;8.77;79.25;102156.06;4993363;28;20117;-50
2021/10/16 05:55:53;;;;;;;14.65;4.65;;;;;;;8.78;79.22;102151.47;4990376;28;20081;-49
2021/10/16 05:58:21;;;;;;;12.43;5.00;;;;;;;8.79;79.25;102151.25;5001608;28;20042;-49
2021/10/16 06:00:50;;;;;;;11.80;4.97;;;;;;;8.82;79.42;102153.50;4993825;28;20050;-50
2021/10/16 06:03:22;;;;;;;11.98;5.07;;;;;;;8.85;78.87;102146.81;4991967;28;20073;-49
2021/10/16 06:05:57;;;;;;;15.48;4.97;;;;;;;8.85;78.59;102147.66;4992202;28;20057;-50
2021/10/16 06:08:26;;;;;;;15.00;4.80;;;;;;;8.85;78.61;102155.81;4994827;28;20433;-46
2021/10/16 06:10:54;;;;;;;12.55;5.40;;;;;;;8.84;78.53;102148.69;4991513;28;20105;-51
2021/10/16 06:13:23;;;;;;;13.77;5.28;;;;;;;8.76;79.20;102151.72;4990137;28;20050;-49
2021/10/16 06:15:51;;;;;;;13.48;4.93;;;;;;;8.70;79.37;102152.59;4989369;28;20061;-48
2021/10/16 06:18:23;;;;;;;12.82;4.40;;;;;;;8.71;80.25;102151.53;4977337;28;20073;-48
2021/10/16 06:20:51;;;;;;;13.18;5.13;;;;;;;8.73;81.24;102155.69;4991647;28;20480;-46
2021/10/16 06:23:20;;;;;;;13.48;5.07;;;;;;;8.78;81.19;102152.31;4992151;28;20077;-48
2021/10/16 06:25:50;;;;;;;12.88;5.30;;;;;;;8.80;81.26;102155.63;4993958;28;20375;-48
2021/10/16 06:28:17;;;;;;;13.40;5.15;;;;;;;8.81;80.86;102157.31;4993026;28;20561;-49
2021/10/16 06:30:45;;;;;;;13.05;5.15;;;;;;;8.82;81.35;102158.94;4985572;28;20500;-47
2021/10/16 06:33:13;;;;;;;15.43;5.88;;;;;;;8.79;81.27;102162.13;4988185;28;20060;-49
2021/10/16 06:35:41;;;;;;;14.38;6.00;;;;;;;8.78;81.55;102168.63;4986067;28;20748;-49
2021/10/16 06:38:23;;;;;;;16.45;6.32;;;;;;;8.77;81.38;102164.22;4992591;28;20541;-50
2021/10/16 06:40:51;;;;;;;15.88;6.10;;;;;;;8.80;82.08;102165.66;4992614;28;20404;-49
2021/10/16 06:43:44;;;;;;;13.65;5.60;;;;;;;8.84;81.74;102166.88;4992670;28;20042;-49
2021/10/16 06:46:25;;;;;;;12.50;5.15;;;;;;;8.87;81.61;102164.53;4991453;28;20122;-50
2021/10/16 06:49:12;;;;;;;11.90;5.22;;;;;;;8.89;81.76;102162.44;4988656;28;20378;-48
2021/10/16 06:51:42;;;;;;;15.80;6.25;;;;;;;8.92;81.53;102170.16;4991969;28;20058;-47
2021/10/16 06:54:12;;;;;;;16.98;5.97;;;;;;;8.97;81.75;102166.75;4992289;28;20046;-46
2021/10/16 06:56:45;;;;;;;14.57;6.38;;;;;;;8.97;81.25;102161.31;4986659;28;20081;-47
2021/10/16 06:59:14;;;;;;;16.70;7.07;;;;;;;8.99;80.24;102163.81;4991947;28;20035;-47
2021/10/16 07:01:42;;;;;;;16.23;6.82;;;;;;;8.97;80.81;102169.47;5008625;28;20485;-47
2021/10/16 07:04:14;;;;;;;15.93;7.10;;;;;;;9.00;80.33;102168.22;4991840;28;20401;-50
2021/10/16 07:06:44;;;;;;;18.92;7.80;;;;;;;9.01;80.18;102170.69;5001320;28;20039;-48
2021/10/16 07:09:19;;;;;;;18.45;7.15;;;;;;;9.03;79.52;102167.75;4991984;28;20749;-48
2021/10/16 07:11:47;;;;;;;19.17;7.85;;;;;;;9.03;79.61;102167.75;4993454;28;20073;-48
2021/10/16 07:14:15;;;;;;;18.55;7.13;;;;;;;9.05;79.79;102168.38;4993422;28;20520;-49
2021/10/16 07:16:43;;;;;;;19.05;8.27;;;;;;;9.08;79.52;102184.22;4991909;28;20458;-48
2021/10/16 07:19:11;;;;;;;20.00;8.48;;;;;;;9.09;79.11;102181.28;4993226;28;20141;-48
2021/10/16 07:21:39;;;;;;;13.65;6.80;;;;;;;9.10;79.23;102177.50;4991934;28;20045;-48
2021/10/16 07:24:06;;;;;;;18.33;8.05;;;;;;;9.12;79.38;102177.28;4992973;28;20555;-48
2021/10/16 07:26:34;;;;;;;20.30;8.30;;;;;;;9.14;79.26;102183.34;4993214;28;20042;-48
2021/10/16 07:29:02;;;;;;;19.80;8.48;;;;;;;9.14;79.24;102186.06;4993125;28;20109;-47
2021/10/16 07:31:30;;;;;;;18.63;7.70;;;;;;;9.12;78.52;102186.28;4993280;28;20061;-48
2021/10/16 07:34:00;;;;;;;25.92;8.40;;;;;;;9.10;79.35;102184.84;4979616;28;20038;-48
2021/10/16 07:36:34;;;;;;;19.58;8.13;;;;;;;9.10;79.40;102188.38;4992931;28;20413;-48
2021/10/16 07:39:03;;;;;;;21.17;8.88;;;;;;;9.10;79.69;102201.97;4991938;28;20050;-48
2021/10/16 07:41:31;;;;;;;19.73;8.35;;;;;;;9.11;80.95;102198.19;4992905;28;20050;-48
2021/10/16 07:43:59;;;;;;;20.00;7.05;;;;;;;9.16;81.01;102195.66;4979050;28;20050;-45
2021/10/16 07:46:26;;;;;;;18.77;7.80;;;;;;;9.18;80.69;102189.97;4992550;28;20414;-49
2021/10/16 07:48:54;;;;;;;21.77;7.90;;;;;;;9.18;79.93;102209.00;4992442;28;20050;-50
2021/10/16 07:51:21;;;;;;;21.25;7.88;;;;;;;9.14;80.43;102195.03;4992784;28;20042;-47
2021/10/16 07:53:49;;;;;;;14.05;7.47;;;;;;;9.14;80.71;102195.03;4992529;28;20061;-46
2021/10/16 07:56:16;;;;;;;17.35;7.20;;;;;;;9.15;80.92;102198.59;4991922;28;20097;-48
2021/10/16 07:58:44;;;;;;;16.65;7.43;;;;;;;9.16;80.56;102197.53;4991857;28;20137;-47
2021/10/16 08:01:12;;;;;;;19.15;7.22;;;;;;;9.17;80.53;102193.75;4988315;28;20050;-45
2021/10/16 08:03:40;;;;;;;16.52;7.15;;;;;;;9.20;80.72;102197.91;4990796;28;20046;-48
2021/10/16 08:06:08;;;;;;;21.70;7.22;;;;;;;9.22;81.01;102199.34;4990046;28;20050;-48
2021/10/16 08:08:36;;;;;;;19.58;7.32;;;;;;;9.23;80.58;102192.03;4988153;28;20125;-48
2021/10/16 08:11:04;;;;;;;21.23;8.05;;;;;;;9.23;80.80;102197.47;4980138;28;20038;-48
2021/10/16 08:13:32;;;;;;;17.60;6.57;;;;;;;9.23;80.86;102190.13;4991452;28;20038;-47
2021/10/16 08:15:59;;;;;;;17.45;6.82;;;;;;;9.25;81.02;102184.47;4990634;28;20077;-47
2021/10/16 08:18:27;;;;;;;19.23;7.18;;;;;;;9.26;81.10;102184.25;4990408;28;20046;-48
2021/10/16 08:20:54;;;;;;;22.67;9.52;;;;;;;9.30;80.98;102199.03;4989590;28;20039;-45
2021/10/16 08:23:22;;;;;;;16.23;7.65;;;;;;;9.33;80.68;102200.47;4990416;28;20038;-48
2021/10/16 08:25:50;;;;;;;21.95;6.82;;;;;;;9.34;80.70;102200.28;4991549;28;20046;-47
2021/10/16 08:28:18;;;;;;;19.40;7.22;;;;;;;9.35;80.28;102196.47;4991957;28;20054;-48
2021/10/16 08:30:50;;;;;;;16.25;6.78;;;;;;;9.37;80.61;102201.69;4989808;28;20089;-48
2021/10/16 08:33:19;;;;;;;19.67;6.88;;;;;;;9.39;80.76;102202.31;4989919;28;20101;-47
2021/10/16 08:35:47;;;;;;;21.35;7.07;;;;;;;9.39;80.89;102208.56;4990803;28;20042;-50
2021/10/16 08:38:16;;;;;;;19.33;7.95;;;;;;;9.39;80.67;102207.75;4990741;28;20054;-48
2021/10/16 08:40:44;;;;;;;21.42;7.40;;;;;;;9.39;80.83;102208.56;4992115;28;20070;-46
2021/10/16 08:43:12;;;;;;;19.80;7.03;;;;;;;9.43;80.80;102208.13;4988447;28;20050;-48
2021/10/16 08:45:40;;;;;;;17.38;6.50;;;;;;;9.45;80.65;102211.44;4991380;28;20042;-47
2021/10/16 08:48:08;;;;;;;20.33;6.47;;;;;;;9.47;80.79;102206.63;4991134;28;20053;-47
2021/10/16 08:50:35;;;;;;;18.15;6.38;;;;;;;9.49;80.89;102213.50;4989798;28;20068;-47
2021/10/16 08:53:04;;;;;;;17.38;6.40;;;;;;;9.50;80.88;102208.88;4985800;28;20039;-48
2021/10/16 08:55:31;;;;;;;17.77;6.53;;;;;;;9.52;80.74;102217.66;4991558;28;20055;-48
2021/10/16 08:57:59;;;;;;;16.15;6.47;;;;;;;9.54;80.82;102215.53;4989786;28;20382;-49
2021/10/16 09:00:49;;;;;;;14.70;5.65;;;;;;;9.56;80.78;102219.69;4990796;28;20045;-49
2021/10/16 09:03:29;;;;;;;21.75;5.80;;;;;;;9.57;80.71;102221.38;4989512;28;20054;-47
2021/10/16 09:06:11;;;;;;;17.00;6.05;;;;;;;9.58;81.05;102219.47;4995510;28;20097;-47
2021/10/16 09:08:46;;;;;;;19.42;6.10;;;;;;;9.60;81.04;102220.09;4989827;28;20046;-47
2021/10/16 09:11:18;;;;;;;16.37;6.27;;;;;;;9.61;81.34;102232.63;4994402;28;20038;-47
2021/10/16 09:13:54;;;;;;;15.98;5.78;;;;;;;9.62;82.00;102226.13;4995696;28;20053;-48
2021/10/16 09:16:28;;;;;;;19.20;6.57;;;;;;;9.63;82.64;102233.22;4994138;28;20068;-48
2021/10/16 09:19:08;;;;;;;17.92;6.60;;;;;;;9.65;82.23;102227.56;4993794;28;20053;-47
2021/10/16 09:21:37;;;;;;;16.80;5.90;;;;;;;9.63;81.99;102233.22;4989330;28;20053;-47
2021/10/16 09:24:07;;;;;;;19.77;6.32;;;;;;;9.64;82.06;102228.59;4993844;28;20065;-45
2021/10/16 09:26:38;;;;;;;19.00;6.13;;;;;;;9.65;82.43;102233.84;4993609;28;20517;-44
2021/10/16 09:29:07;;;;;;;16.83;6.05;;;;;;;9.68;82.13;102230.66;4993461;28;20062;-48
2021/10/16 09:31:49;;;;;;;19.17;5.63;;;;;;;9.69;81.83;102224.16;4995143;28;20444;-47
2021/10/16 09:34:23;;;;;;;15.63;5.53;;;;;;;9.70;81.73;102222.28;4994815;28;20053;-50
2021/10/16 09:36:50;;;;;;;15.77;5.82;;;;;;;9.71;81.98;102227.47;4993512;28;20042;-51
2021/10/16 09:39:19;;;;;;;16.25;5.38;;;;;;;9.73;81.96;102224.53;4994326;28;20042;-49
2021/10/16 09:41:47;;;;;;;15.80;5.75;;;;;;;9.76;82.26;102224.88;4994960;28;20038;-49
2021/10/16 09:44:23;;;;;;;17.90;5.72;;;;;;;9.79;82.27;102232.63;4991640;28;20045;-50
2021/10/16 09:47:04;;;;;;;19.65;5.85;;;;;;;9.80;82.50;102220.66;4992367;28;20069;-51
2021/10/16 09:49:46;;;;;;;21.35;6.40;;;;;;;9.81;82.68;102225.06;4993669;28;20057;-49
2021/10/16 09:52:16;;;;;;;22.27;6.22;;;;;;;9.85;82.70;102236.31;4992223;28;20038;-48
2021/10/16 09:54:45;;;;;;;20.63;6.00;;;;;;;9.87;82.87;102233.38;4993026;28;20046;-48
2021/10/16 09:57:16;;;;;;;21.00;5.95;;;;;;;9.89;82.85;102223.09;4991152;28;20066;-48
2021/10/16 09:59:43;;;;;;;17.13;5.78;;;;;;;9.92;82.68;102228.06;5009143;28;20046;-48
2021/10/16 10:02:11;;;;;;;16.45;5.90;;;;;;;9.94;82.56;102231.41;4991653;28;20130;-49
2021/10/16 10:04:42;;;;;;;18.38;5.93;;;;;;;9.95;82.45;102227.59;4994626;28;20576;-48
2021/10/16 10:07:10;;;;;;;16.20;5.93;;;;;;;9.96;82.48;102234.72;4994435;28;20093;-50
2021/10/16 10:09:39;;;;;;;15.68;5.40;;;;;;;9.97;82.23;102233.66;4994288;28;20042;-49
2021/10/16 10:12:07;;;;;;;17.23;5.38;;;;;;;9.97;82.48;102223.59;4993853;28;20121;-48
2021/10/16 10:14:41;;;;;;;16.95;5.43;;;;;;;10.00;82.01;102225.03;4994618;28;20417;-50
2021/10/16 10:17:10;;;;;;;21.08;6.90;;;;;;;10.02;82.30;102222.91;4994427;28;20046;-47
2021/10/16 10:19:40;;;;;;;18.48;5.75;;;;;;;10.04;82.42;102226.22;5009328;28;20049;-50
2021/10/16 10:22:14;;;;;;;16.23;5.40;;;;;;;10.07;82.01;102231.22;4993226;28;20062;-52
2021/10/16 10:24:45;;;;;;;20.45;5.50;;;;;;;10.09;81.29;102226.38;4995106;28;20125;-52
2021/10/16 10:27:16;;;;;;;15.75;5.18;;;;;;;10.12;80.87;102233.25;4992815;28;20054;-46
2021/10/16 10:29:50;;;;;;;17.88;5.45;;;;;;;10.15;80.64;102228.19;4993233;28;20165;-52
2021/10/16 10:32:19;;;;;;;25.02;5.30;;;;;;;10.16;80.07;102229.84;4991782;28;20407;-48
2021/10/16 10:34:59;;;;;;;17.13;4.88;;;;;;;10.18;80.24;102227.72;4992999;28;20042;-48
2021/10/16 10:37:39;;;;;;;17.00;4.80;;;;;;;10.21;79.24;102231.88;4990925;28;20077;-49
2021/10/16 10:40:15;;;;;;;20.63;5.43;;;;;;;10.27;79.16;102225.50;4987282;28;20072;-51
2021/10/16 10:42:49;;;;;;;16.50;5.20;;;;;;;10.31;78.70;102231.34;4993323;28;20042;-51
2021/10/16 10:45:31;;;;;;;18.70;5.60;;;;;;;10.33;78.34;102221.88;4991767;28;20051;-49
2021/10/16 10:48:01;;;;;;;18.45;5.60;;;;;;;10.35;78.28;102222.47;4991496;28;20101;-48
2021/10/16 10:50:47;;;;;;;13.10;4.78;;;;;;;10.37;78.40;102214.91;4981309;28;20076;-48
2021/10/16 10:53:28;;;;;;;15.82;5.20;;;;;;;10.39;78.24;102209.22;4992413;28;20042;-49
2021/10/16 10:56:02;;;;;;;19.83;5.32;;;;;;;10.49;80.34;102212.22;4992294;28;20034;-46
2021/10/16 10:58:59;;;;;;;20.85;5.63;;;;;;;10.54;78.02;102215.06;4988574;28;20039;-47
2021/10/16 11:01:45;;;;;;;13.73;4.53;;;;;;;10.57;77.86;102213.78;4984738;28;20039;-47
2021/10/16 11:04:31;;;;;;;20.15;5.40;;;;;;;10.57;77.47;102216.50;4991801;28;20070;-47
2021/10/16 11:07:02;;;;;;;19.40;5.30;;;;;;;10.58;77.97;102210.81;4991189;28;20042;-47
2021/10/16 11:09:30;;;;;;;17.88;5.18;;;;;;;10.60;77.76;102216.84;4992191;28;20510;-46
2021/10/16 11:11:58;;;;;;;14.63;5.07;;;;;;;10.62;77.91;102216.63;5006340;28;20046;-48
2021/10/16 11:14:33;;;;;;;16.30;4.90;;;;;;;10.65;78.88;102202.50;4991346;28;20398;-48
2021/10/16 11:17:05;;;;;;;14.23;4.78;;;;;;;10.76;79.94;102200.88;4989040;28;20042;-55
2021/10/16 11:20:06;;;;;;;24.52;5.50;;;;;;;10.88;79.58;102204.44;4991922;28;20043;-47
2021/10/16 11:22:47;;;;;;;16.77;5.68;;;;;;;10.92;78.11;102199.34;4946025;28;20039;-48
2021/10/16 11:25:29;;;;;;;14.85;4.65;;;;;;;10.90;77.88;102196.88;4950803;28;20047;-47
2021/10/16 11:28:05;;;;;;;17.10;5.20;;;;;;;10.87;77.99;102197.31;4948256;28;20043;-47
2021/10/16 11:30:44;;;;;;;16.17;4.93;;;;;;;10.87;77.97;102202.78;4950624;28;20051;-48
2021/10/16 11:33:14;;;;;;;20.35;5.97;;;;;;;10.87;78.02;102197.31;4944860;28;20123;-46
2021/10/16 11:35:45;;;;;;;15.18;4.80;;;;;;;10.90;77.79;102191.41;4951191;28;20048;-49
2021/10/16 11:38:15;;;;;;;27.00;7.32;;;;;;;10.99;79.17;102184.53;4951207;28;20055;-46